sensor_id;sensor_type;location;lat;lon;timestamp;P1;durP1;ratioP1;P2;durP2;ratioP2
17987;SDS011;9119;50.932;5.342;2023-01-19T00:00:04;30.67;;;11.73;;
17987;SDS011;9119;50.932;5.342;2023-01-19T00:02:35;25.57;;;12.10;;
17987;SDS011;9119;50.932;5.342;2023-01-19T00:05:02;24.60;;;11.43;;
17987;SDS011;9119;50.932;5.342;2023-01-19T00:07:29;22.97;;;11.60;;
17987;SDS011;9119;50.932;5.342;2023-01-19T00:09:55;20.97;;;11.60;;
17987;SDS011;9119;50.932;5.342;2023-01-19T00:12:21;27.20;;;12.20;;
17987;SDS011;9119;50.932;5.342;2023-01-19T00:14:47;25.07;;;11.67;;
17987;SDS011;9119;50.932;5.342;2023-01-19T00:17:13;34.07;;;14.00;;
17987;SDS011;9119;50.932;5.342;2023-01-19T00:19:38;24.57;;;12.53;;
17987;SDS011;9119;50.932;5.342;2023-01-19T00:22:04;29.90;;;12.10;;
17987;SDS011;9119;50.932;5.342;2023-01-19T00:24:30;25.03;;;11.27;;
17987;SDS011;9119;50.932;5.342;2023-01-19T00:26:56;20.87;;;10.63;;
17987;SDS011;9119;50.932;5.342;2023-01-19T00:29:22;24.97;;;11.93;;
17987;SDS011;9119;50.932;5.342;2023-01-19T00:31:48;24.43;;;11.87;;
17987;SDS011;9119;50.932;5.342;2023-01-19T00:34:14;22.97;;;10.67;;
17987;SDS011;9119;50.932;5.342;2023-01-19T00:36:40;24.27;;;11.63;;
17987;SDS011;9119;50.932;5.342;2023-01-19T00:39:06;24.70;;;11.50;;
17987;SDS011;9119;50.932;5.342;2023-01-19T00:41:32;28.57;;;12.27;;
17987;SDS011;9119;50.932;5.342;2023-01-19T00:44:16;23.90;;;12.57;;
17987;SDS011;9119;50.932;5.342;2023-01-19T00:46:42;23.10;;;11.53;;
17987;SDS011;9119;50.932;5.342;2023-01-19T00:49:08;27.57;;;11.70;;
17987;SDS011;9119;50.932;5.342;2023-01-19T00:51:33;25.20;;;10.93;;
17987;SDS011;9119;50.932;5.342;2023-01-19T00:53:59;28.20;;;12.13;;
17987;SDS011;9119;50.932;5.342;2023-01-19T00:56:29;26.30;;;10.70;;
17987;SDS011;9119;50.932;5.342;2023-01-19T00:58:55;23.00;;;11.30;;
17987;SDS011;9119;50.932;5.342;2023-01-19T01:01:20;26.57;;;11.27;;
17987;SDS011;9119;50.932;5.342;2023-01-19T01:03:46;29.10;;;12.00;;
17987;SDS011;9119;50.932;5.342;2023-01-19T01:06:12;25.23;;;11.97;;
17987;SDS011;9119;50.932;5.342;2023-01-19T01:08:38;26.37;;;11.50;;
17987;SDS011;9119;50.932;5.342;2023-01-19T01:11:03;23.47;;;11.53;;
17987;SDS011;9119;50.932;5.342;2023-01-19T01:13:29;22.63;;;11.50;;
17987;SDS011;9119;50.932;5.342;2023-01-19T01:15:55;31.70;;;11.47;;
17987;SDS011;9119;50.932;5.342;2023-01-19T01:18:21;26.80;;;11.47;;
17987;SDS011;9119;50.932;5.342;2023-01-19T01:20:48;29.27;;;11.60;;
17987;SDS011;9119;50.932;5.342;2023-01-19T01:23:14;21.80;;;11.23;;
17987;SDS011;9119;50.932;5.342;2023-01-19T01:25:39;29.90;;;12.13;;
17987;SDS011;9119;50.932;5.342;2023-01-19T01:28:06;27.37;;;12.40;;
17987;SDS011;9119;50.932;5.342;2023-01-19T01:30:36;25.40;;;11.90;;
17987;SDS011;9119;50.932;5.342;2023-01-19T01:33:05;23.93;;;11.57;;
17987;SDS011;9119;50.932;5.342;2023-01-19T01:35:32;32.57;;;13.57;;
17987;SDS011;9119;50.932;5.342;2023-01-19T01:37:58;33.67;;;13.00;;
17987;SDS011;9119;50.932;5.342;2023-01-19T01:40:24;31.43;;;11.37;;
17987;SDS011;9119;50.932;5.342;2023-01-19T01:42:50;33.37;;;13.13;;
17987;SDS011;9119;50.932;5.342;2023-01-19T01:45:23;24.60;;;11.40;;
17987;SDS011;9119;50.932;5.342;2023-01-19T01:53:35;28.23;;;12.63;;
17987;SDS011;9119;50.932;5.342;2023-01-19T01:56:02;29.90;;;11.63;;
17987;SDS011;9119;50.932;5.342;2023-01-19T01:58:33;25.23;;;11.83;;
17987;SDS011;9119;50.932;5.342;2023-01-19T02:00:59;26.60;;;12.70;;
17987;SDS011;9119;50.932;5.342;2023-01-19T02:03:44;36.77;;;12.83;;
17987;SDS011;9119;50.932;5.342;2023-01-19T02:06:10;28.07;;;12.03;;
17987;SDS011;9119;50.932;5.342;2023-01-19T02:08:53;30.23;;;12.50;;
17987;SDS011;9119;50.932;5.342;2023-01-19T02:11:41;27.97;;;11.60;;
17987;SDS011;9119;50.932;5.342;2023-01-19T02:14:26;30.43;;;12.27;;
17987;SDS011;9119;50.932;5.342;2023-01-19T02:16:52;26.37;;;11.73;;
17987;SDS011;9119;50.932;5.342;2023-01-19T02:19:21;24.03;;;11.50;;
17987;SDS011;9119;50.932;5.342;2023-01-19T02:21:57;28.27;;;11.30;;
17987;SDS011;9119;50.932;5.342;2023-01-19T02:24:44;30.27;;;13.40;;
17987;SDS011;9119;50.932;5.342;2023-01-19T02:27:10;29.63;;;12.77;;
17987;SDS011;9119;50.932;5.342;2023-01-19T02:29:36;31.67;;;12.50;;
17987;SDS011;9119;50.932;5.342;2023-01-19T02:32:03;33.97;;;13.17;;
17987;SDS011;9119;50.932;5.342;2023-01-19T02:34:29;32.67;;;13.13;;
17987;SDS011;9119;50.932;5.342;2023-01-19T02:36:57;33.83;;;13.63;;
17987;SDS011;9119;50.932;5.342;2023-01-19T02:39:38;33.13;;;13.53;;
17987;SDS011;9119;50.932;5.342;2023-01-19T02:42:10;30.70;;;14.00;;
17987;SDS011;9119;50.932;5.342;2023-01-19T02:44:39;31.47;;;13.73;;
17987;SDS011;9119;50.932;5.342;2023-01-19T02:47:09;28.47;;;12.87;;
17987;SDS011;9119;50.932;5.342;2023-01-19T02:49:35;33.97;;;13.47;;
17987;SDS011;9119;50.932;5.342;2023-01-19T02:52:01;30.27;;;13.80;;
17987;SDS011;9119;50.932;5.342;2023-01-19T03:18:35;32.73;;;13.63;;
17987;SDS011;9119;50.932;5.342;2023-01-19T03:21:04;32.03;;;14.10;;
17987;SDS011;9119;50.932;5.342;2023-01-19T03:23:31;38.43;;;14.83;;
17987;SDS011;9119;50.932;5.342;2023-01-19T03:26:00;46.27;;;14.43;;
17987;SDS011;9119;50.932;5.342;2023-01-19T03:28:29;30.17;;;12.43;;
17987;SDS011;9119;50.932;5.342;2023-01-19T03:31:00;31.10;;;13.23;;
17987;SDS011;9119;50.932;5.342;2023-01-19T03:33:49;35.27;;;13.63;;
17987;SDS011;9119;50.932;5.342;2023-01-19T03:36:20;34.73;;;14.30;;
17987;SDS011;9119;50.932;5.342;2023-01-19T03:38:51;38.77;;;13.90;;
17987;SDS011;9119;50.932;5.342;2023-01-19T03:41:18;38.17;;;13.63;;
17987;SDS011;9119;50.932;5.342;2023-01-19T03:43:47;38.93;;;14.37;;
17987;SDS011;9119;50.932;5.342;2023-01-19T03:46:16;33.23;;;13.13;;
17987;SDS011;9119;50.932;5.342;2023-01-19T03:48:43;36.13;;;14.67;;
17987;SDS011;9119;50.932;5.342;2023-01-19T03:51:10;37.80;;;13.77;;
17987;SDS011;9119;50.932;5.342;2023-01-19T03:53:37;34.93;;;13.93;;
17987;SDS011;9119;50.932;5.342;2023-01-19T03:56:03;38.03;;;14.23;;
17987;SDS011;9119;50.932;5.342;2023-01-19T03:58:30;40.13;;;13.70;;
17987;SDS011;9119;50.932;5.342;2023-01-19T04:00:55;33.60;;;14.00;;
17987;SDS011;9119;50.932;5.342;2023-01-19T04:03:21;35.70;;;14.03;;
17987;SDS011;9119;50.932;5.342;2023-01-19T04:05:47;39.07;;;14.63;;
17987;SDS011;9119;50.932;5.342;2023-01-19T04:08:12;34.77;;;14.47;;
17987;SDS011;9119;50.932;5.342;2023-01-19T04:10:38;43.23;;;15.90;;
17987;SDS011;9119;50.932;5.342;2023-01-19T04:13:06;34.23;;;14.10;;
17987;SDS011;9119;50.932;5.342;2023-01-19T04:15:32;39.37;;;15.70;;
17987;SDS011;9119;50.932;5.342;2023-01-19T04:17:58;36.20;;;14.93;;
17987;SDS011;9119;50.932;5.342;2023-01-19T04:20:25;35.70;;;14.40;;
17987;SDS011;9119;50.932;5.342;2023-01-19T04:22:52;38.40;;;15.20;;
17987;SDS011;9119;50.932;5.342;2023-01-19T04:25:19;41.03;;;14.93;;
17987;SDS011;9119;50.932;5.342;2023-01-19T04:27:45;41.53;;;15.90;;
17987;SDS011;9119;50.932;5.342;2023-01-19T04:30:11;43.30;;;15.57;;
17987;SDS011;9119;50.932;5.342;2023-01-19T04:32:37;37.47;;;15.70;;
17987;SDS011;9119;50.932;5.342;2023-01-19T04:35:02;45.43;;;15.50;;
17987;SDS011;9119;50.932;5.342;2023-01-19T04:37:28;43.47;;;16.13;;
17987;SDS011;9119;50.932;5.342;2023-01-19T04:39:54;40.87;;;14.80;;
17987;SDS011;9119;50.932;5.342;2023-01-19T04:42:19;35.80;;;14.40;;
17987;SDS011;9119;50.932;5.342;2023-01-19T04:44:46;41.87;;;14.53;;
17987;SDS011;9119;50.932;5.342;2023-01-19T04:47:11;41.67;;;16.27;;
17987;SDS011;9119;50.932;5.342;2023-01-19T04:49:37;37.30;;;15.27;;
17987;SDS011;9119;50.932;5.342;2023-01-19T04:52:03;40.87;;;15.47;;
17987;SDS011;9119;50.932;5.342;2023-01-19T04:54:29;46.80;;;16.80;;
17987;SDS011;9119;50.932;5.342;2023-01-19T04:56:56;40.17;;;15.47;;
17987;SDS011;9119;50.932;5.342;2023-01-19T04:59:21;41.20;;;15.60;;
17987;SDS011;9119;50.932;5.342;2023-01-19T05:01:47;40.17;;;14.97;;
17987;SDS011;9119;50.932;5.342;2023-01-19T05:04:13;42.50;;;15.37;;
17987;SDS011;9119;50.932;5.342;2023-01-19T05:06:38;39.17;;;14.20;;
17987;SDS011;9119;50.932;5.342;2023-01-19T05:09:04;43.97;;;15.53;;
17987;SDS011;9119;50.932;5.342;2023-01-19T05:11:32;40.57;;;15.67;;
17987;SDS011;9119;50.932;5.342;2023-01-19T05:14:01;37.10;;;14.53;;
17987;SDS011;9119;50.932;5.342;2023-01-19T05:16:27;39.17;;;14.87;;
17987;SDS011;9119;50.932;5.342;2023-01-19T05:18:53;43.90;;;15.07;;
17987;SDS011;9119;50.932;5.342;2023-01-19T05:21:18;44.73;;;15.80;;
17987;SDS011;9119;50.932;5.342;2023-01-19T05:23:44;45.40;;;15.63;;
17987;SDS011;9119;50.932;5.342;2023-01-19T05:26:10;38.30;;;15.57;;
17987;SDS011;9119;50.932;5.342;2023-01-19T05:28:35;40.63;;;14.97;;
17987;SDS011;9119;50.932;5.342;2023-01-19T05:31:01;45.47;;;15.83;;
17987;SDS011;9119;50.932;5.342;2023-01-19T05:33:27;38.40;;;14.80;;
17987;SDS011;9119;50.932;5.342;2023-01-19T05:35:53;50.07;;;15.40;;
17987;SDS011;9119;50.932;5.342;2023-01-19T05:38:20;41.30;;;15.03;;
17987;SDS011;9119;50.932;5.342;2023-01-19T05:40:45;43.87;;;15.80;;
17987;SDS011;9119;50.932;5.342;2023-01-19T05:43:12;39.93;;;15.47;;
17987;SDS011;9119;50.932;5.342;2023-01-19T05:45:38;47.07;;;15.83;;
17987;SDS011;9119;50.932;5.342;2023-01-19T05:48:05;36.93;;;14.17;;
17987;SDS011;9119;50.932;5.342;2023-01-19T05:50:32;47.87;;;15.20;;
17987;SDS011;9119;50.932;5.342;2023-01-19T05:52:58;38.33;;;14.40;;
17987;SDS011;9119;50.932;5.342;2023-01-19T05:55:24;46.53;;;15.40;;
17987;SDS011;9119;50.932;5.342;2023-01-19T05:57:50;52.70;;;15.83;;
17987;SDS011;9119;50.932;5.342;2023-01-19T06:00:16;50.67;;;16.63;;
17987;SDS011;9119;50.932;5.342;2023-01-19T06:02:42;35.80;;;14.87;;
17987;SDS011;9119;50.932;5.342;2023-01-19T06:05:08;52.17;;;16.13;;
17987;SDS011;9119;50.932;5.342;2023-01-19T06:07:34;40.27;;;15.80;;
17987;SDS011;9119;50.932;5.342;2023-01-19T06:10:00;37.77;;;15.13;;
17987;SDS011;9119;50.932;5.342;2023-01-19T06:12:25;42.83;;;15.33;;
17987;SDS011;9119;50.932;5.342;2023-01-19T06:14:51;43.77;;;17.17;;
17987;SDS011;9119;50.932;5.342;2023-01-19T06:17:16;45.90;;;15.73;;
17987;SDS011;9119;50.932;5.342;2023-01-19T06:19:42;41.90;;;15.30;;
17987;SDS011;9119;50.932;5.342;2023-01-19T06:22:08;42.30;;;15.93;;
17987;SDS011;9119;50.932;5.342;2023-01-19T06:24:33;46.40;;;16.17;;
17987;SDS011;9119;50.932;5.342;2023-01-19T06:26:59;45.60;;;16.13;;
17987;SDS011;9119;50.932;5.342;2023-01-19T06:29:25;40.20;;;16.10;;
17987;SDS011;9119;50.932;5.342;2023-01-19T06:31:51;47.43;;;16.83;;
17987;SDS011;9119;50.932;5.342;2023-01-19T06:34:17;39.53;;;15.60;;
17987;SDS011;9119;50.932;5.342;2023-01-19T06:36:43;46.23;;;17.23;;
17987;SDS011;9119;50.932;5.342;2023-01-19T06:39:10;49.07;;;16.43;;
17987;SDS011;9119;50.932;5.342;2023-01-19T06:41:36;43.63;;;16.43;;
17987;SDS011;9119;50.932;5.342;2023-01-19T06:44:02;50.23;;;18.17;;
17987;SDS011;9119;50.932;5.342;2023-01-19T06:46:29;117.37;;;24.60;;
17987;SDS011;9119;50.932;5.342;2023-01-19T06:48:58;42.07;;;16.10;;
17987;SDS011;9119;50.932;5.342;2023-01-19T06:51:24;45.47;;;17.13;;
17987;SDS011;9119;50.932;5.342;2023-01-19T06:53:49;52.30;;;18.67;;
17987;SDS011;9119;50.932;5.342;2023-01-19T06:56:15;43.27;;;16.30;;
17987;SDS011;9119;50.932;5.342;2023-01-19T06:58:41;46.03;;;16.93;;
17987;SDS011;9119;50.932;5.342;2023-01-19T07:01:07;44.77;;;17.10;;
17987;SDS011;9119;50.932;5.342;2023-01-19T07:03:33;50.30;;;18.17;;
17987;SDS011;9119;50.932;5.342;2023-01-19T07:06:00;49.37;;;17.77;;
17987;SDS011;9119;50.932;5.342;2023-01-19T07:08:27;50.97;;;18.07;;
17987;SDS011;9119;50.932;5.342;2023-01-19T07:10:57;48.33;;;18.07;;
17987;SDS011;9119;50.932;5.342;2023-01-19T07:13:25;52.53;;;18.97;;
17987;SDS011;9119;50.932;5.342;2023-01-19T07:15:51;45.77;;;18.27;;
17987;SDS011;9119;50.932;5.342;2023-01-19T07:18:16;44.60;;;16.57;;
17987;SDS011;9119;50.932;5.342;2023-01-19T07:20:42;46.90;;;18.30;;
17987;SDS011;9119;50.932;5.342;2023-01-19T07:23:09;49.77;;;18.50;;
17987;SDS011;9119;50.932;5.342;2023-01-19T07:25:35;47.93;;;16.67;;
17987;SDS011;9119;50.932;5.342;2023-01-19T07:28:02;53.37;;;18.37;;
17987;SDS011;9119;50.932;5.342;2023-01-19T07:30:28;50.67;;;17.73;;
17987;SDS011;9119;50.932;5.342;2023-01-19T07:32:57;50.27;;;17.57;;
17987;SDS011;9119;50.932;5.342;2023-01-19T07:35:23;46.83;;;17.77;;
17987;SDS011;9119;50.932;5.342;2023-01-19T07:37:49;47.17;;;16.70;;
17987;SDS011;9119;50.932;5.342;2023-01-19T07:40:15;43.73;;;17.17;;
17987;SDS011;9119;50.932;5.342;2023-01-19T07:42:47;55.53;;;17.37;;
17987;SDS011;9119;50.932;5.342;2023-01-19T07:45:18;42.83;;;17.60;;
17987;SDS011;9119;50.932;5.342;2023-01-19T07:47:45;53.87;;;17.13;;
17987;SDS011;9119;50.932;5.342;2023-01-19T07:50:13;50.47;;;17.53;;
17987;SDS011;9119;50.932;5.342;2023-01-19T07:52:40;49.47;;;16.80;;
17987;SDS011;9119;50.932;5.342;2023-01-19T07:55:06;46.70;;;18.53;;
17987;SDS011;9119;50.932;5.342;2023-01-19T07:57:33;44.43;;;17.17;;
17987;SDS011;9119;50.932;5.342;2023-01-19T07:59:59;44.60;;;17.57;;
17987;SDS011;9119;50.932;5.342;2023-01-19T08:02:25;57.40;;;18.73;;
17987;SDS011;9119;50.932;5.342;2023-01-19T08:04:51;50.23;;;17.57;;
17987;SDS011;9119;50.932;5.342;2023-01-19T08:07:16;50.27;;;17.33;;
17987;SDS011;9119;50.932;5.342;2023-01-19T08:09:42;46.43;;;16.83;;
17987;SDS011;9119;50.932;5.342;2023-01-19T08:12:08;41.20;;;16.90;;
17987;SDS011;9119;50.932;5.342;2023-01-19T08:14:34;46.93;;;16.90;;
17987;SDS011;9119;50.932;5.342;2023-01-19T08:17:00;52.20;;;18.23;;
17987;SDS011;9119;50.932;5.342;2023-01-19T08:19:26;53.53;;;17.50;;
17987;SDS011;9119;50.932;5.342;2023-01-19T08:21:52;47.87;;;16.73;;
17987;SDS011;9119;50.932;5.342;2023-01-19T08:24:19;45.67;;;16.27;;
17987;SDS011;9119;50.932;5.342;2023-01-19T08:26:46;49.03;;;17.00;;
17987;SDS011;9119;50.932;5.342;2023-01-19T08:29:13;46.17;;;17.20;;
17987;SDS011;9119;50.932;5.342;2023-01-19T08:31:39;50.57;;;18.10;;
17987;SDS011;9119;50.932;5.342;2023-01-19T08:34:05;47.10;;;18.70;;
17987;SDS011;9119;50.932;5.342;2023-01-19T08:36:35;53.60;;;17.33;;
17987;SDS011;9119;50.932;5.342;2023-01-19T08:39:00;49.93;;;17.90;;
17987;SDS011;9119;50.932;5.342;2023-01-19T08:41:26;47.73;;;18.80;;
17987;SDS011;9119;50.932;5.342;2023-01-19T08:43:52;52.13;;;17.73;;
17987;SDS011;9119;50.932;5.342;2023-01-19T08:46:17;39.03;;;17.07;;
17987;SDS011;9119;50.932;5.342;2023-01-19T08:48:45;50.90;;;17.37;;
17987;SDS011;9119;50.932;5.342;2023-01-19T08:51:14;51.60;;;17.93;;
17987;SDS011;9119;50.932;5.342;2023-01-19T08:53:41;47.17;;;17.67;;
17987;SDS011;9119;50.932;5.342;2023-01-19T08:56:08;58.43;;;17.87;;
17987;SDS011;9119;50.932;5.342;2023-01-19T08:58:38;49.87;;;16.87;;
17987;SDS011;9119;50.932;5.342;2023-01-19T09:01:05;45.33;;;18.00;;
17987;SDS011;9119;50.932;5.342;2023-01-19T09:03:32;50.77;;;18.63;;
17987;SDS011;9119;50.932;5.342;2023-01-19T09:05:58;57.20;;;20.33;;
17987;SDS011;9119;50.932;5.342;2023-01-19T09:08:24;54.07;;;18.60;;
17987;SDS011;9119;50.932;5.342;2023-01-19T09:10:56;49.47;;;19.10;;
17987;SDS011;9119;50.932;5.342;2023-01-19T09:13:21;54.57;;;21.03;;
17987;SDS011;9119;50.932;5.342;2023-01-19T09:15:47;55.57;;;19.77;;
17987;SDS011;9119;50.932;5.342;2023-01-19T09:18:14;55.73;;;20.90;;
17987;SDS011;9119;50.932;5.342;2023-01-19T09:20:42;52.70;;;20.37;;
17987;SDS011;9119;50.932;5.342;2023-01-19T09:23:09;58.77;;;20.60;;
17987;SDS011;9119;50.932;5.342;2023-01-19T09:25:37;101.20;;;40.20;;
17987;SDS011;9119;50.932;5.342;2023-01-19T09:28:04;61.47;;;20.17;;
17987;SDS011;9119;50.932;5.342;2023-01-19T09:30:31;50.33;;;20.10;;
17987;SDS011;9119;50.932;5.342;2023-01-19T09:33:03;50.53;;;20.27;;
17987;SDS011;9119;50.932;5.342;2023-01-19T09:35:35;50.73;;;20.47;;
17987;SDS011;9119;50.932;5.342;2023-01-19T09:38:02;58.97;;;19.70;;
17987;SDS011;9119;50.932;5.342;2023-01-19T09:40:28;49.47;;;18.73;;
17987;SDS011;9119;50.932;5.342;2023-01-19T09:43:05;52.30;;;19.30;;
17987;SDS011;9119;50.932;5.342;2023-01-19T09:45:56;49.60;;;18.77;;
17987;SDS011;9119;50.932;5.342;2023-01-19T09:48:25;41.93;;;17.90;;
17987;SDS011;9119;50.932;5.342;2023-01-19T09:51:24;58.63;;;19.57;;
17987;SDS011;9119;50.932;5.342;2023-01-19T09:56:45;47.87;;;18.10;;
17987;SDS011;9119;50.932;5.342;2023-01-19T09:59:17;55.13;;;17.77;;
17987;SDS011;9119;50.932;5.342;2023-01-19T10:10:20;45.67;;;17.97;;
17987;SDS011;9119;50.932;5.342;2023-01-19T10:12:54;49.63;;;19.37;;
17987;SDS011;9119;50.932;5.342;2023-01-19T10:15:40;56.07;;;19.57;;
17987;SDS011;9119;50.932;5.342;2023-01-19T10:21:20;52.23;;;19.27;;
17987;SDS011;9119;50.932;5.342;2023-01-19T10:24:05;60.80;;;19.60;;
17987;SDS011;9119;50.932;5.342;2023-01-19T10:29:14;54.20;;;20.03;;
17987;SDS011;9119;50.932;5.342;2023-01-19T10:31:45;49.93;;;19.40;;
17987;SDS011;9119;50.932;5.342;2023-01-19T10:34:13;50.30;;;20.87;;
17987;SDS011;9119;50.932;5.342;2023-01-19T10:36:42;50.13;;;18.87;;
17987;SDS011;9119;50.932;5.342;2023-01-19T10:39:11;50.27;;;18.23;;
17987;SDS011;9119;50.932;5.342;2023-01-19T10:44:08;57.77;;;20.50;;
17987;SDS011;9119;50.932;5.342;2023-01-19T10:46:44;52.33;;;20.10;;
17987;SDS011;9119;50.932;5.342;2023-01-19T10:51:55;48.30;;;18.67;;
17987;SDS011;9119;50.932;5.342;2023-01-19T10:54:22;61.43;;;19.93;;
17987;SDS011;9119;50.932;5.342;2023-01-19T10:56:56;56.13;;;20.23;;
17987;SDS011;9119;50.932;5.342;2023-01-19T11:02:02;55.73;;;18.77;;
17987;SDS011;9119;50.932;5.342;2023-01-19T11:04:28;57.80;;;19.23;;
17987;SDS011;9119;50.932;5.342;2023-01-19T11:12:41;54.30;;;18.47;;
17987;SDS011;9119;50.932;5.342;2023-01-19T11:15:19;53.87;;;19.40;;
17987;SDS011;9119;50.932;5.342;2023-01-19T11:17:45;49.73;;;19.13;;
17987;SDS011;9119;50.932;5.342;2023-01-19T11:20:18;65.70;;;20.30;;
17987;SDS011;9119;50.932;5.342;2023-01-19T11:23:03;60.10;;;21.37;;
17987;SDS011;9119;50.932;5.342;2023-01-19T11:25:30;57.27;;;20.47;;
17987;SDS011;9119;50.932;5.342;2023-01-19T11:27:57;57.87;;;19.87;;
17987;SDS011;9119;50.932;5.342;2023-01-19T11:30:24;62.37;;;21.30;;
17987;SDS011;9119;50.932;5.342;2023-01-19T11:32:51;53.27;;;18.97;;
17987;SDS011;9119;50.932;5.342;2023-01-19T11:40:53;44.33;;;17.17;;
17987;SDS011;9119;50.932;5.342;2023-01-19T11:43:22;43.03;;;16.20;;
17987;SDS011;9119;50.932;5.342;2023-01-19T11:45:51;41.50;;;14.97;;
17987;SDS011;9119;50.932;5.342;2023-01-19T11:48:29;42.13;;;15.57;;
17987;SDS011;9119;50.932;5.342;2023-01-19T11:51:01;44.27;;;16.10;;
17987;SDS011;9119;50.932;5.342;2023-01-19T11:53:32;40.60;;;14.67;;
17987;SDS011;9119;50.932;5.342;2023-01-19T11:56:05;40.07;;;14.77;;
17987;SDS011;9119;50.932;5.342;2023-01-19T11:58:39;38.13;;;15.60;;
17987;SDS011;9119;50.932;5.342;2023-01-19T12:06:15;44.13;;;15.77;;
17987;SDS011;9119;50.932;5.342;2023-01-19T12:09:10;49.13;;;15.03;;
17987;SDS011;9119;50.932;5.342;2023-01-19T12:12:00;45.30;;;15.07;;
17987;SDS011;9119;50.932;5.342;2023-01-19T12:14:42;41.80;;;15.57;;
17987;SDS011;9119;50.932;5.342;2023-01-19T12:17:21;40.90;;;15.40;;
17987;SDS011;9119;50.932;5.342;2023-01-19T12:19:53;33.17;;;13.90;;
17987;SDS011;9119;50.932;5.342;2023-01-19T12:22:44;39.67;;;14.00;;
17987;SDS011;9119;50.932;5.342;2023-01-19T12:28:36;40.80;;;13.87;;
17987;SDS011;9119;50.932;5.342;2023-01-19T12:31:08;38.33;;;13.83;;
17987;SDS011;9119;50.932;5.342;2023-01-19T12:33:35;43.50;;;14.10;;
17987;SDS011;9119;50.932;5.342;2023-01-19T12:46:44;37.97;;;13.47;;
17987;SDS011;9119;50.932;5.342;2023-01-19T12:51:49;33.17;;;12.77;;
17987;SDS011;9119;50.932;5.342;2023-01-19T12:54:24;33.13;;;13.10;;
17987;SDS011;9119;50.932;5.342;2023-01-19T12:57:00;34.83;;;14.80;;
17987;SDS011;9119;50.932;5.342;2023-01-19T12:59:29;30.47;;;12.50;;
17987;SDS011;9119;50.932;5.342;2023-01-19T13:24:18;30.57;;;11.23;;
17987;SDS011;9119;50.932;5.342;2023-01-19T13:31:59;31.70;;;13.00;;
17987;SDS011;9119;50.932;5.342;2023-01-19T13:34:29;32.30;;;11.73;;
17987;SDS011;9119;50.932;5.342;2023-01-19T13:37:11;31.50;;;11.87;;
17987;SDS011;9119;50.932;5.342;2023-01-19T13:39:41;33.20;;;11.50;;
17987;SDS011;9119;50.932;5.342;2023-01-19T13:42:13;22.20;;;10.47;;
17987;SDS011;9119;50.932;5.342;2023-01-19T13:44:40;24.70;;;10.50;;
17987;SDS011;9119;50.932;5.342;2023-01-19T13:47:18;26.87;;;10.20;;
17987;SDS011;9119;50.932;5.342;2023-01-19T13:49:53;25.97;;;10.80;;
17987;SDS011;9119;50.932;5.342;2023-01-19T13:52:25;27.13;;;9.70;;
17987;SDS011;9119;50.932;5.342;2023-01-19T13:57:29;26.90;;;9.70;;
17987;SDS011;9119;50.932;5.342;2023-01-19T14:02:36;21.57;;;9.07;;
17987;SDS011;9119;50.932;5.342;2023-01-19T14:05:13;22.47;;;8.43;;
17987;SDS011;9119;50.932;5.342;2023-01-19T14:07:39;26.73;;;8.73;;
17987;SDS011;9119;50.932;5.342;2023-01-19T14:10:09;27.20;;;9.27;;
17987;SDS011;9119;50.932;5.342;2023-01-19T14:12:38;21.43;;;9.00;;
17987;SDS011;9119;50.932;5.342;2023-01-19T14:15:04;20.67;;;9.60;;
17987;SDS011;9119;50.932;5.342;2023-01-19T14:17:36;24.43;;;10.40;;
17987;SDS011;9119;50.932;5.342;2023-01-19T14:20:02;25.03;;;9.73;;
17987;SDS011;9119;50.932;5.342;2023-01-19T14:22:39;26.03;;;10.37;;
17987;SDS011;9119;50.932;5.342;2023-01-19T14:30:58;25.73;;;9.07;;
17987;SDS011;9119;50.932;5.342;2023-01-19T14:33:41;24.17;;;10.37;;
17987;SDS011;9119;50.932;5.342;2023-01-19T14:39:00;24.23;;;9.87;;
17987;SDS011;9119;50.932;5.342;2023-01-19T14:41:37;26.77;;;11.47;;
17987;SDS011;9119;50.932;5.342;2023-01-19T14:44:16;20.23;;;9.10;;
17987;SDS011;9119;50.932;5.342;2023-01-19T14:46:50;31.33;;;9.97;;
17987;SDS011;9119;50.932;5.342;2023-01-19T14:49:21;21.47;;;9.13;;
17987;SDS011;9119;50.932;5.342;2023-01-19T14:52:14;26.67;;;9.73;;
17987;SDS011;9119;50.932;5.342;2023-01-19T14:54:45;26.33;;;10.17;;
17987;SDS011;9119;50.932;5.342;2023-01-19T14:57:12;26.50;;;11.40;;
17987;SDS011;9119;50.932;5.342;2023-01-19T14:59:38;29.73;;;12.20;;
17987;SDS011;9119;50.932;5.342;2023-01-19T15:02:05;28.87;;;11.43;;
17987;SDS011;9119;50.932;5.342;2023-01-19T15:04:31;29.43;;;11.03;;
17987;SDS011;9119;50.932;5.342;2023-01-19T15:06:59;30.90;;;10.83;;
17987;SDS011;9119;50.932;5.342;2023-01-19T15:09:25;30.37;;;11.57;;
17987;SDS011;9119;50.932;5.342;2023-01-19T15:11:50;28.17;;;11.47;;
17987;SDS011;9119;50.932;5.342;2023-01-19T15:14:17;25.30;;;10.43;;
17987;SDS011;9119;50.932;5.342;2023-01-19T15:16:45;27.40;;;9.63;;
17987;SDS011;9119;50.932;5.342;2023-01-19T15:19:12;38.53;;;10.80;;
17987;SDS011;9119;50.932;5.342;2023-01-19T15:21:39;37.10;;;13.03;;
17987;SDS011;9119;50.932;5.342;2023-01-19T15:24:10;24.63;;;8.87;;
17987;SDS011;9119;50.932;5.342;2023-01-19T15:26:37;26.07;;;9.73;;
17987;SDS011;9119;50.932;5.342;2023-01-19T15:29:24;28.80;;;9.97;;
17987;SDS011;9119;50.932;5.342;2023-01-19T15:31:50;21.03;;;8.10;;
17987;SDS011;9119;50.932;5.342;2023-01-19T15:34:16;18.83;;;8.67;;
17987;SDS011;9119;50.932;5.342;2023-01-19T15:36:42;23.57;;;8.70;;
17987;SDS011;9119;50.932;5.342;2023-01-19T15:39:08;19.87;;;8.90;;
17987;SDS011;9119;50.932;5.342;2023-01-19T15:41:35;27.70;;;8.63;;
17987;SDS011;9119;50.932;5.342;2023-01-19T15:44:02;20.53;;;9.63;;
17987;SDS011;9119;50.932;5.342;2023-01-19T15:46:31;29.67;;;10.57;;
17987;SDS011;9119;50.932;5.342;2023-01-19T15:48:57;26.03;;;10.47;;
17987;SDS011;9119;50.932;5.342;2023-01-19T15:51:23;29.33;;;11.13;;
17987;SDS011;9119;50.932;5.342;2023-01-19T15:53:50;27.30;;;10.80;;
17987;SDS011;9119;50.932;5.342;2023-01-19T15:56:21;33.87;;;11.70;;
17987;SDS011;9119;50.932;5.342;2023-01-19T15:58:52;28.70;;;10.90;;
17987;SDS011;9119;50.932;5.342;2023-01-19T16:01:19;25.43;;;11.00;;
17987;SDS011;9119;50.932;5.342;2023-01-19T16:03:47;29.67;;;10.60;;
17987;SDS011;9119;50.932;5.342;2023-01-19T16:06:13;25.07;;;11.00;;
17987;SDS011;9119;50.932;5.342;2023-01-19T16:08:40;27.47;;;12.53;;
17987;SDS011;9119;50.932;5.342;2023-01-19T16:11:07;28.13;;;10.97;;
17987;SDS011;9119;50.932;5.342;2023-01-19T16:13:36;28.50;;;10.30;;
17987;SDS011;9119;50.932;5.342;2023-01-19T16:16:02;21.60;;;10.37;;
17987;SDS011;9119;50.932;5.342;2023-01-19T16:18:29;25.60;;;11.43;;
17987;SDS011;9119;50.932;5.342;2023-01-19T16:20:54;25.37;;;10.73;;
17987;SDS011;9119;50.932;5.342;2023-01-19T16:23:20;29.93;;;11.40;;
17987;SDS011;9119;50.932;5.342;2023-01-19T16:25:58;29.80;;;11.73;;
17987;SDS011;9119;50.932;5.342;2023-01-19T16:28:29;24.83;;;10.53;;
17987;SDS011;9119;50.932;5.342;2023-01-19T16:30:55;22.30;;;11.50;;
17987;SDS011;9119;50.932;5.342;2023-01-19T16:33:21;28.60;;;12.07;;
17987;SDS011;9119;50.932;5.342;2023-01-19T16:35:47;30.77;;;12.53;;
17987;SDS011;9119;50.932;5.342;2023-01-19T16:38:12;29.93;;;11.87;;
17987;SDS011;9119;50.932;5.342;2023-01-19T16:40:38;33.13;;;12.83;;
17987;SDS011;9119;50.932;5.342;2023-01-19T16:43:04;25.83;;;11.87;;
17987;SDS011;9119;50.932;5.342;2023-01-19T16:45:30;28.27;;;11.43;;
17987;SDS011;9119;50.932;5.342;2023-01-19T16:47:56;31.70;;;11.80;;
17987;SDS011;9119;50.932;5.342;2023-01-19T16:50:21;30.40;;;13.37;;
17987;SDS011;9119;50.932;5.342;2023-01-19T16:52:47;34.33;;;13.30;;